To NAV CANADA Home Page Login to a new session Search on AWWS site Feedback and Comments Disclaimer Vers la page française équivalente Tips FAQ What's new on the site To the Forecasts and Observations / NOTAM section To "File a Flight Plan" website Publications and other links Update of the User's profile FIC Telephone Numbers My Weather Data Folder Route Weather Data Regional Weather Data Local Weather Data To the Forecasts and Observations / NOTAM section
Request Generated 12/04/2016 at 22:22:13 UTC . Weather information available at that time is displayed.

METAR/TAF

LLOYDMINSTER/AB    (show WxCam)

METAR CYLL 042200Z 29012G19KT 15SM FEW026 SCT250 M03/M08 A2955 RMK
SC2CI2 SLP047=
METAR CYLL 042100Z 29015KT 15SM FEW025 FEW250 M02/M09 A2953 RMK
SC1CI1 SLP041=
METAR CYLL 042000Z 28012G18KT 15SM FEW025 FEW250 M02/M09 A2954 RMK
SC1CI1 SLP042=

TAF CYLL 041744Z 0418/0506 27012KT P6SM FEW220
FM042000 30012KT P6SM SCT140
FM042300 30012KT P6SM SCT030 BKN140 TEMPO 0423/0506 5SM -SN
OVC020
RMK NXT FCST BY 050000Z=
Your time UTC time
Weather data provided by Environment Canada and NAV CANADA